createdAt,value
2019-06-10T00:02:10.937Z,63.60
2019-06-10T00:04:38.826Z,63.80
2019-06-10T00:07:07.356Z,62.70
2019-06-10T00:09:35.380Z,63.10
2019-06-10T00:12:04.735Z,64.80
2019-06-10T00:14:32.878Z,63.40
2019-06-10T00:17:02.012Z,63.00
2019-06-10T00:19:31.698Z,64.40
2019-06-10T00:22:01.980Z,64.50
2019-06-10T00:24:31.500Z,65.50
2019-06-10T00:27:00.287Z,63.80
2019-06-10T00:29:31.115Z,64.50
2019-06-10T00:32:00.993Z,64.40
2019-06-10T00:34:31.554Z,63.40
2019-06-10T00:37:02.663Z,62.90
2019-06-10T00:39:31.259Z,63.90
2019-06-10T00:42:02.517Z,63.80
2019-06-10T00:44:31.107Z,62.90
2019-06-10T00:47:00.100Z,64.30
2019-06-10T00:49:28.506Z,62.90
2019-06-10T00:51:56.445Z,62.80
2019-06-10T00:54:24.163Z,63.70
2019-06-10T00:56:52.075Z,63.80
2019-06-10T00:59:22.128Z,63.60
2019-06-10T01:01:50.940Z,63.90
2019-06-10T01:04:21.418Z,63.20
2019-06-10T01:06:51.391Z,62.60
2019-06-10T01:09:21.639Z,63.40
2019-06-10T01:11:51.673Z,64.40
2019-06-10T01:14:21.355Z,64.30
2019-06-10T01:16:50.620Z,64.50
2019-06-10T01:19:18.695Z,63.40
2019-06-10T01:21:46.366Z,63.10
2019-06-10T01:24:14.843Z,63.30
2019-06-10T01:26:42.752Z,64.80
2019-06-10T01:29:13.648Z,64.70
2019-06-10T01:31:42.014Z,63.50
2019-06-10T01:34:12.433Z,63.40
2019-06-10T01:36:40.738Z,64.10
2019-06-10T01:39:09.486Z,64.70
2019-06-10T01:41:40.799Z,64.50
2019-06-10T01:44:08.458Z,64.10
2019-06-10T01:46:36.514Z,63.10
2019-06-10T01:49:04.214Z,63.40
2019-06-10T01:51:33.696Z,64.90
2019-06-10T01:54:01.446Z,65.40
2019-06-10T01:56:31.337Z,65.10
2019-06-10T01:59:01.348Z,63.90
2019-06-10T02:01:37.692Z,63.20
2019-06-10T02:04:05.448Z,64.40
2019-06-10T02:06:33.165Z,63.20
2019-06-10T02:09:06.931Z,63.30
2019-06-10T02:11:35.832Z,62.40
2019-06-10T02:14:04.438Z,62.90
2019-06-10T02:16:32.648Z,62.50
2019-06-10T02:19:03.979Z,63.00
2019-06-10T02:21:31.152Z,63.30
2019-06-10T02:24:01.001Z,61.80
2019-06-10T02:26:30.898Z,60.30
2019-06-10T02:29:00.561Z,61.20
2019-06-10T02:31:35.512Z,60.80
2019-06-10T02:33:57.829Z,61.10
2019-06-10T02:36:31.248Z,60.30
2019-06-10T02:38:55.491Z,60.10
2019-06-10T02:41:31.649Z,58.60
2019-06-10T02:43:53.534Z,59.60
2019-06-10T02:46:28.527Z,59.50
2019-06-10T02:48:54.373Z,58.10
2019-06-10T02:51:28.661Z,59.50
2019-06-10T02:53:53.826Z,58.60
2019-06-10T02:56:27.534Z,57.80
2019-06-10T02:58:53.440Z,58.70
2019-06-10T03:01:23.288Z,58.20
2019-06-10T03:03:53.928Z,58.40
2019-06-10T03:06:25.231Z,57.60
2019-06-10T03:08:50.071Z,56.00
2019-06-10T03:11:19.269Z,56.30
2019-06-10T03:13:47.710Z,57.00
2019-06-10T03:16:23.071Z,57.20
2019-06-10T03:18:52.504Z,57.90
2019-06-10T03:21:23.067Z,57.40
2019-06-10T03:23:50.450Z,56.30
2019-06-10T03:26:19.248Z,57.00
2019-06-10T03:28:47.319Z,56.80
2019-06-10T03:31:15.840Z,56.60
2019-06-10T03:33:47.730Z,56.30
2019-06-10T03:36:14.424Z,56.40
2019-06-10T03:38:43.299Z,56.30
2019-06-10T03:41:12.467Z,56.60
2019-06-10T03:43:42.686Z,56.20
2019-06-10T03:46:10.178Z,56.80
2019-06-10T03:48:37.883Z,55.80
2019-06-10T03:51:05.765Z,56.00
2019-06-10T03:53:33.883Z,54.40
2019-06-10T03:56:02.245Z,55.30
2019-06-10T03:58:32.612Z,54.90
2019-06-10T04:01:02.799Z,54.40
2019-06-10T04:03:29.887Z,53.30
2019-06-10T04:05:57.606Z,54.30
2019-06-10T04:08:26.546Z,53.70
2019-06-10T04:10:54.622Z,54.50
2019-06-10T04:13:25.851Z,55.00
2019-06-10T04:15:56.544Z,55.00
2019-06-10T04:18:27.860Z,54.40
2019-06-10T04:20:55.486Z,55.00
2019-06-10T04:23:25.419Z,54.60
2019-06-10T04:25:53.093Z,53.80
2019-06-10T04:28:24.071Z,54.30
2019-06-10T04:30:53.584Z,54.50
2019-06-10T04:33:23.284Z,54.90
2019-06-10T04:35:51.949Z,55.60
2019-06-10T04:38:23.360Z,55.20
2019-06-10T04:40:52.516Z,55.90
2019-06-10T04:43:22.981Z,55.90
2019-06-10T04:45:50.037Z,54.60
2019-06-10T04:48:18.519Z,54.70
2019-06-10T04:50:46.637Z,56.30
2019-06-10T04:53:14.401Z,56.00
2019-06-10T04:55:43.135Z,55.40
2019-06-10T04:58:12.950Z,55.70
2019-06-10T05:00:42.751Z,55.50
2019-06-10T05:03:12.133Z,56.20
2019-06-10T05:05:39.944Z,57.10
2019-06-10T05:08:07.862Z,55.80
2019-06-10T05:10:35.881Z,57.10
2019-06-10T05:13:03.568Z,57.50
2019-06-10T05:15:34.625Z,56.40
2019-06-10T05:18:03.311Z,56.10
2019-06-10T05:20:48.943Z,55.30
2019-06-10T05:23:02.250Z,54.50
2019-06-10T05:25:32.649Z,53.40
2019-06-10T05:28:00.211Z,49.90
2019-06-10T05:30:31.040Z,49.50
2019-06-10T05:32:59.627Z,48.80
2019-06-10T05:35:28.473Z,48.10
2019-06-10T05:37:57.060Z,47.60
2019-06-10T05:40:26.229Z,46.90
2019-06-10T05:42:54.335Z,46.20
2019-06-10T05:45:24.649Z,44.40
2019-06-10T05:47:53.078Z,43.40
2019-06-10T05:50:23.413Z,42.80
2019-06-10T05:52:52.066Z,40.80
2019-06-10T05:55:22.475Z,40.20
2019-06-10T05:57:49.753Z,40.10
2019-06-10T06:00:18.870Z,39.90
2019-06-10T06:02:46.792Z,39.40
2019-06-10T06:05:14.951Z,37.90
2019-06-10T06:07:42.839Z,38.30
2019-06-10T06:10:13.022Z,37.40
2019-06-10T06:12:42.450Z,37.50
2019-06-10T06:15:12.893Z,37.20
2019-06-10T06:17:42.976Z,36.50
2019-06-10T06:20:13.120Z,35.70
2019-06-10T06:22:42.673Z,37.00
2019-06-10T06:25:15.196Z,35.40
2019-06-10T06:27:42.243Z,35.10
2019-06-10T06:30:18.470Z,34.80
2019-06-10T06:32:43.536Z,33.50
2019-06-10T06:35:12.640Z,32.30
2019-06-10T06:37:42.869Z,30.70
2019-06-10T06:40:13.083Z,28.80
2019-06-10T06:42:43.106Z,28.30
2019-06-10T06:45:12.159Z,27.80
2019-06-10T06:47:39.903Z,26.60
2019-06-10T06:50:12.897Z,26.30
2019-06-10T06:53:12.514Z,26.90
2019-06-10T06:55:10.062Z,27.30
2019-06-10T06:57:38.980Z,26.80
2019-06-10T07:00:34.217Z,26.90
2019-06-10T07:02:38.820Z,26.70
2019-06-10T07:05:07.957Z,25.70
2019-06-10T07:07:38.561Z,25.60
2019-06-10T07:10:07.639Z,26.50
2019-06-10T07:12:36.731Z,25.90
2019-06-10T07:15:07.385Z,26.30
2019-06-10T07:17:37.379Z,27.20
2019-06-10T07:20:06.932Z,28.00
2019-06-10T07:22:36.979Z,27.10
2019-06-10T07:25:07.802Z,27.30
2019-06-10T07:27:37.542Z,27.10
2019-06-10T07:30:11.773Z,28.40
2019-06-10T07:32:38.504Z,26.70
2019-06-10T07:35:05.660Z,24.20
2019-06-10T07:37:34.962Z,26.60
2019-06-10T07:40:04.997Z,22.10
2019-06-10T07:42:33.302Z,18.90
2019-06-10T07:45:02.705Z,15.20
2019-06-10T07:47:32.657Z,12.20
2019-06-10T07:50:02.878Z,11.00
2019-06-10T07:52:30.165Z,8.90
2019-06-10T07:54:59.545Z,7.40
2019-06-10T07:57:28.427Z,5.30
2019-06-10T07:59:56.120Z,4.00
2019-06-10T08:02:24.535Z,2.10
2019-06-10T08:04:55.175Z,1.40
2019-06-10T08:07:23.486Z,1.50
2019-06-10T08:09:53.254Z,1.00
2019-06-10T08:12:23.257Z,1.00
2019-06-10T08:14:53.225Z,1.00
2019-06-10T08:17:22.490Z,1.00
2019-06-10T08:19:53.494Z,1.00
2019-06-10T08:22:31.262Z,1.00
2019-06-10T08:24:52.302Z,1.00
2019-06-10T08:27:22.717Z,1.00
2019-06-10T08:30:07.782Z,1.00
2019-06-10T08:32:20.920Z,1.00
2019-06-10T08:34:49.235Z,1.00
2019-06-10T08:37:18.829Z,1.00
2019-06-10T08:39:47.687Z,1.00
2019-06-10T08:42:15.792Z,1.00
2019-06-10T08:44:47.266Z,1.00
2019-06-10T08:47:14.791Z,1.00
2019-06-10T08:49:46.201Z,1.00
2019-06-10T08:52:13.798Z,1.00
2019-06-10T08:54:45.703Z,1.00
2019-06-10T08:57:14.862Z,1.00
2019-06-10T08:59:46.064Z,1.00
2019-06-10T09:02:13.770Z,1.00
2019-06-10T09:04:45.961Z,1.20
2019-06-10T09:07:14.448Z,1.80
2019-06-10T09:09:48.635Z,2.10
2019-06-10T09:12:28.747Z,3.20
2019-06-10T09:14:48.184Z,3.10
2019-06-10T09:17:16.148Z,3.50
2019-06-10T09:19:46.443Z,3.70
2019-06-10T09:22:33.774Z,3.30
2019-06-10T09:25:03.063Z,2.10
2019-06-10T09:27:32.755Z,2.00
2019-06-10T09:30:03.014Z,2.50
2019-06-10T09:32:32.570Z,2.90
2019-06-10T09:35:03.216Z,2.50
2019-06-10T09:37:32.038Z,3.20
2019-06-10T09:40:03.367Z,2.90
2019-06-10T09:42:33.204Z,2.40
2019-06-10T09:45:02.652Z,2.50
2019-06-10T09:47:34.015Z,2.50
2019-06-10T09:50:03.257Z,1.70
2019-06-10T09:52:32.859Z,2.80
2019-06-10T09:55:02.778Z,3.20
2019-06-10T09:57:32.145Z,3.30
2019-06-10T10:00:03.090Z,3.30
2019-06-10T10:02:29.772Z,4.00
2019-06-10T10:04:58.570Z,4.40
2019-06-10T10:07:32.322Z,4.40
2019-06-10T10:10:04.497Z,4.70
2019-06-10T10:12:32.699Z,4.80
2019-06-10T10:15:22.241Z,3.60
2019-06-10T10:17:33.414Z,3.00
2019-06-10T10:20:03.201Z,3.50
2019-06-10T10:22:33.351Z,2.90
2019-06-10T10:25:04.201Z,2.70
2019-06-10T10:27:32.439Z,2.90
2019-06-10T10:30:03.149Z,2.00
2019-06-10T10:32:33.442Z,1.60
2019-06-10T10:35:03.063Z,1.90
2019-06-10T10:37:33.833Z,1.90
2019-06-10T10:40:03.907Z,1.60
2019-06-10T10:42:45.533Z,1.00
2019-06-10T10:45:06.074Z,1.00
2019-06-10T10:47:34.317Z,1.00
2019-06-10T10:50:06.150Z,1.00
2019-06-10T10:52:34.015Z,1.00
2019-06-10T10:55:06.541Z,1.00
2019-06-10T10:57:33.226Z,1.00
2019-06-10T11:00:03.149Z,1.00
2019-06-10T11:02:32.228Z,1.00
2019-06-10T11:05:00.139Z,1.00
2019-06-10T11:07:28.099Z,1.00
2019-06-10T11:09:56.873Z,1.00
2019-06-10T11:12:25.840Z,1.00
2019-06-10T11:14:55.353Z,1.00
2019-06-10T11:17:23.942Z,1.00
2019-06-10T11:19:53.702Z,1.00
2019-06-10T11:22:23.151Z,1.00
2019-06-10T11:24:54.427Z,1.10
2019-06-10T11:27:22.833Z,1.00
2019-06-10T11:29:53.149Z,1.10
2019-06-10T11:32:20.467Z,1.80
2019-06-10T11:34:48.211Z,2.40
2019-06-10T11:37:16.037Z,2.50
2019-06-10T11:39:44.063Z,1.90
2019-06-10T11:42:13.749Z,1.20
2019-06-10T11:44:43.258Z,1.60
2019-06-10T11:47:13.248Z,1.00
2019-06-10T11:49:43.452Z,1.00
2019-06-10T11:52:12.618Z,1.00
2019-06-10T11:54:53.787Z,1.00
2019-06-10T11:57:12.511Z,1.00
2019-06-10T11:59:40.079Z,1.00
2019-06-10T12:02:07.809Z,1.00
2019-06-10T12:04:35.921Z,1.40
2019-06-10T12:07:04.454Z,2.20
2019-06-10T12:09:33.416Z,2.40
2019-06-10T12:12:02.208Z,3.00
2019-06-10T12:14:32.831Z,3.10
2019-06-10T12:17:30.922Z,2.40
2019-06-10T12:19:34.081Z,2.10
2019-06-10T12:22:07.200Z,1.80
2019-06-10T12:24:33.340Z,1.90
2019-06-10T12:27:04.816Z,1.70
2019-06-10T12:29:31.822Z,1.30
2019-06-10T12:32:02.819Z,1.20
2019-06-10T12:34:29.267Z,1.20
2019-06-10T12:37:07.467Z,1.00
2019-06-10T12:39:28.806Z,1.50
2019-06-10T12:41:58.312Z,1.00
2019-06-10T12:44:27.941Z,1.30
2019-06-10T12:46:57.989Z,1.70
2019-06-10T12:49:25.595Z,1.10
2019-06-10T12:51:54.765Z,1.80
2019-06-10T12:54:23.085Z,1.60
2019-06-10T12:56:56.505Z,1.50
2019-06-10T12:59:24.789Z,1.00
2019-06-10T13:01:53.190Z,1.00
2019-06-10T13:04:21.854Z,1.00
2019-06-10T13:06:51.980Z,1.00
2019-06-10T13:09:19.510Z,1.00
2019-06-10T13:11:47.211Z,1.00
2019-06-10T13:14:18.175Z,1.00
2019-06-10T13:16:44.672Z,1.00
2019-06-10T13:19:13.294Z,1.00
2019-06-10T13:21:42.638Z,1.00
2019-06-10T13:24:12.897Z,1.00
2019-06-10T13:26:43.001Z,1.00
2019-06-10T13:29:11.303Z,1.00
2019-06-10T13:31:39.829Z,1.00
2019-06-10T13:34:11.299Z,1.00
2019-06-10T13:36:37.499Z,1.00
2019-06-10T13:39:10.143Z,1.10
2019-06-10T13:41:37.069Z,1.00
2019-06-10T13:44:06.313Z,1.00
2019-06-10T13:46:34.208Z,1.00
2019-06-10T13:49:04.479Z,1.20
2019-06-10T13:51:32.341Z,1.50
2019-06-10T13:54:03.801Z,1.30
2019-06-10T13:56:45.762Z,1.00
2019-06-10T13:59:01.605Z,1.00
2019-06-10T14:01:34.657Z,1.00
2019-06-10T14:04:02.979Z,1.00
2019-06-10T14:06:45.474Z,1.00
2019-06-10T14:09:00.885Z,1.00
2019-06-10T14:11:30.205Z,1.00
2019-06-10T14:13:58.380Z,1.00
2019-06-10T14:16:26.109Z,1.00
2019-06-10T14:18:54.281Z,1.00
2019-06-10T14:21:23.425Z,1.20
2019-06-10T14:23:51.470Z,1.10
2019-06-10T14:26:34.457Z,1.30
2019-06-10T14:28:48.991Z,1.20
2019-06-10T14:31:38.663Z,1.60
2019-06-10T14:33:47.420Z,1.00
2019-06-10T14:36:16.819Z,1.00
2019-06-10T14:38:45.080Z,1.00
2019-06-10T14:41:14.231Z,1.60
2019-06-10T14:43:43.789Z,1.30
2019-06-10T14:46:14.373Z,1.30
2019-06-10T14:48:42.740Z,2.00
2019-06-10T14:51:14.906Z,2.30
2019-06-10T14:53:42.528Z,2.60
2019-06-10T14:56:14.857Z,2.90
2019-06-10T14:58:42.448Z,3.10
2019-06-10T15:01:17.769Z,3.40
2019-06-10T15:03:40.158Z,3.10
2019-06-10T15:06:09.172Z,3.70
2019-06-10T15:08:37.117Z,3.80
2019-06-10T15:11:07.540Z,5.00
2019-06-10T15:13:35.688Z,5.40
2019-06-10T15:16:04.367Z,5.60
2019-06-10T15:18:33.123Z,5.60
2019-06-10T15:21:03.016Z,6.70
2019-06-10T15:23:32.525Z,6.90
2019-06-10T15:26:02.596Z,7.10
2019-06-10T15:28:30.654Z,7.40
2019-06-10T15:30:58.662Z,8.50
2019-06-10T15:33:26.592Z,10.00
2019-06-10T15:35:54.362Z,11.30
2019-06-10T15:38:23.122Z,12.50
2019-06-10T15:40:53.368Z,15.70
2019-06-10T15:43:23.309Z,17.90
2019-06-10T15:45:52.857Z,16.00
2019-06-10T15:48:24.986Z,18.40
2019-06-10T15:50:52.684Z,19.80
2019-06-10T15:53:25.428Z,18.70
2019-06-10T15:56:16.752Z,20.10
2019-06-10T15:58:25.525Z,21.40
2019-06-10T16:00:54.382Z,21.50
2019-06-10T16:03:25.689Z,21.60
2019-06-10T16:05:53.249Z,20.30
2019-06-10T16:08:22.327Z,20.10
2019-06-10T16:10:52.519Z,22.00
2019-06-10T16:13:21.497Z,22.00
2019-06-10T16:15:52.932Z,21.50
2019-06-10T16:18:25.172Z,23.60
2019-06-10T16:20:52.770Z,23.60
2019-06-10T16:23:23.022Z,23.80
2019-06-10T16:25:53.156Z,23.50
2019-06-10T16:28:23.416Z,23.40
2019-06-10T16:30:53.653Z,23.00
2019-06-10T16:33:26.080Z,21.80
2019-06-10T16:35:51.807Z,21.20
2019-06-10T16:38:22.387Z,21.10
2019-06-10T16:40:53.362Z,20.20
2019-06-10T16:43:22.720Z,20.60
2019-06-10T16:45:49.604Z,20.10
2019-06-10T16:48:17.420Z,20.00
2019-06-10T16:50:47.163Z,19.80
2019-06-10T16:53:17.784Z,19.00
2019-06-10T16:55:44.884Z,19.20
2019-06-10T16:58:15.676Z,20.40
2019-06-10T17:00:43.441Z,19.70
2019-06-10T17:03:12.811Z,20.10
2019-06-10T17:05:42.610Z,20.30
2019-06-10T17:08:12.658Z,20.30
2019-06-10T17:10:40.269Z,20.10
2019-06-10T17:13:09.524Z,20.80
2019-06-10T17:15:37.406Z,22.30
2019-06-10T17:18:05.200Z,22.30
2019-06-10T17:20:34.156Z,23.20
2019-06-10T17:23:26.427Z,21.90
2019-06-10T17:25:55.199Z,22.10
2019-06-10T17:28:29.001Z,22.40
2019-06-10T17:30:55.966Z,22.20
2019-06-10T17:33:25.826Z,22.70
2019-06-10T17:35:53.406Z,23.80
2019-06-10T17:38:22.545Z,25.10
2019-06-10T17:40:52.140Z,24.10
2019-06-10T17:43:20.959Z,23.90
2019-06-10T17:45:48.861Z,24.10
2019-06-10T17:48:16.679Z,23.50
2019-06-10T17:50:45.257Z,24.10
2019-06-10T17:53:12.986Z,24.90
2019-06-10T17:55:41.017Z,24.50
2019-06-10T17:58:08.776Z,24.70
2019-06-10T18:00:36.735Z,25.30
2019-06-10T18:03:05.281Z,25.40
2019-06-10T18:05:33.535Z,24.40
2019-06-10T18:08:02.324Z,25.40
2019-06-10T18:10:34.471Z,25.70
2019-06-10T18:13:13.031Z,25.30
2019-06-10T18:15:35.357Z,26.10
2019-06-10T18:18:03.596Z,26.40
2019-06-10T18:20:36.972Z,26.00
2019-06-10T18:23:04.811Z,25.50
2019-06-10T18:25:33.949Z,27.40
2019-06-10T18:28:04.488Z,27.90
2019-06-10T18:30:35.663Z,28.40
2019-06-10T18:33:03.031Z,29.20
2019-06-10T18:35:34.323Z,30.50
2019-06-10T18:38:02.334Z,33.30
2019-06-10T18:40:31.522Z,35.90
2019-06-10T18:42:59.383Z,38.00
2019-06-10T18:45:27.625Z,40.20
2019-06-10T18:47:55.497Z,42.00
2019-06-10T18:50:26.073Z,43.90
2019-06-10T18:52:56.839Z,45.30
2019-06-10T18:55:23.886Z,50.60
2019-06-10T18:57:53.015Z,53.70
2019-06-10T19:00:22.902Z,53.20
2019-06-10T19:03:08.207Z,57.70
2019-06-10T19:05:22.925Z,61.30
2019-06-10T19:07:52.886Z,67.20
2019-06-10T19:10:23.046Z,74.90
2019-06-10T19:12:53.101Z,80.00
2019-06-10T19:15:20.872Z,80.00
2019-06-10T19:17:48.807Z,84.20
2019-06-10T19:20:17.342Z,85.40
2019-06-10T19:22:45.046Z,88.90
2019-06-10T19:25:13.077Z,90.30
2019-06-10T19:27:44.300Z,90.20
2019-06-10T19:30:12.536Z,89.20
2019-06-10T19:32:44.115Z,90.50
2019-06-10T19:35:13.070Z,90.20
2019-06-10T19:37:42.391Z,90.10
2019-06-10T19:40:12.389Z,90.50
2019-06-10T19:42:40.398Z,91.20
2019-06-10T19:45:08.557Z,90.30
2019-06-10T19:47:37.586Z,89.90
2019-06-10T19:50:06.680Z,90.30
2019-06-10T19:52:35.253Z,90.40
2019-06-10T19:55:07.031Z,89.10
2019-06-10T19:57:35.865Z,89.60
2019-06-10T20:00:11.702Z,88.60
2019-06-10T20:02:37.617Z,88.90
2019-06-10T20:05:08.053Z,89.80
2019-06-10T20:07:35.894Z,90.20
2019-06-10T20:10:05.024Z,90.00
2019-06-10T20:12:34.193Z,90.50
2019-06-10T20:15:02.454Z,90.60
2019-06-10T20:17:32.691Z,92.00
2019-06-10T20:20:02.554Z,91.10
2019-06-10T20:22:32.075Z,90.80
2019-06-10T20:24:59.857Z,90.20
2019-06-10T20:27:27.747Z,90.40
2019-06-10T20:30:07.060Z,90.00
2019-06-10T20:32:25.281Z,89.50
2019-06-10T20:34:58.235Z,90.10
2019-06-10T20:37:26.086Z,89.90
2019-06-10T20:39:54.025Z,90.00
2019-06-10T20:42:23.091Z,87.60
2019-06-10T20:44:51.224Z,89.50
2019-06-10T20:47:18.934Z,89.80
2019-06-10T20:49:51.420Z,90.20
2019-06-10T20:52:16.587Z,89.80
2019-06-10T20:54:46.437Z,91.10
2019-06-10T20:57:14.379Z,90.40
2019-06-10T20:59:43.777Z,90.50
2019-06-10T21:02:13.568Z,90.80
2019-06-10T21:04:43.685Z,91.30
2019-06-10T21:07:13.300Z,91.40
2019-06-10T21:09:46.938Z,90.50
2019-06-10T21:12:14.089Z,90.20
2019-06-10T21:15:02.395Z,90.10
2019-06-10T21:17:30.343Z,89.20
2019-06-10T21:19:58.092Z,89.80
2019-06-10T21:22:27.265Z,90.10
2019-06-10T21:24:55.156Z,90.60
2019-06-10T21:27:23.984Z,90.40
2019-06-10T21:29:54.782Z,90.00
2019-06-10T21:32:21.733Z,89.50
2019-06-10T21:34:52.524Z,90.00
2019-06-10T21:37:19.514Z,91.40
2019-06-10T21:39:48.052Z,91.80
2019-06-10T21:42:16.998Z,91.60
2019-06-10T21:44:45.849Z,90.40
2019-06-10T21:47:13.630Z,90.20
2019-06-10T21:49:42.717Z,91.20
2019-06-10T21:52:12.951Z,90.50
2019-06-10T21:54:42.587Z,90.70
2019-06-10T21:57:10.776Z,90.50
2019-06-10T21:59:38.480Z,90.10
2019-06-10T22:02:06.288Z,89.30
2019-06-10T22:04:34.495Z,90.30
2019-06-10T22:07:03.139Z,90.10
2019-06-10T22:09:31.121Z,90.20
2019-06-10T22:11:58.925Z,90.70
2019-06-10T22:14:30.112Z,89.50
2019-06-10T22:16:57.861Z,90.00
2019-06-10T22:19:25.911Z,90.20
2019-06-10T22:21:55.236Z,90.00
2019-06-10T22:24:23.218Z,90.20
2019-06-10T22:26:51.159Z,89.80
2019-06-10T22:29:18.845Z,88.80
2019-06-10T22:31:47.171Z,89.30
2019-06-10T22:34:15.131Z,90.10
2019-06-10T22:36:42.973Z,89.30
2019-06-10T22:39:12.468Z,88.90
2019-06-10T22:41:42.486Z,90.00
2019-06-10T22:44:12.537Z,89.70
2019-06-10T22:46:42.385Z,88.30
2019-06-10T22:49:09.812Z,88.60
2019-06-10T22:51:37.735Z,89.00
2019-06-10T22:54:05.634Z,90.10
2019-06-10T22:56:33.517Z,89.90
2019-06-10T22:59:03.371Z,89.20
2019-06-10T23:01:37.706Z,88.80
2019-06-10T23:04:03.544Z,89.00
2019-06-10T23:06:30.314Z,89.80
2019-06-10T23:08:59.372Z,88.90
2019-06-10T23:11:27.494Z,89.50
2019-06-10T23:13:56.537Z,88.70
2019-06-10T23:16:24.796Z,88.40
2019-06-10T23:18:56.769Z,89.10
2019-06-10T23:21:23.986Z,89.10
2019-06-10T23:23:53.800Z,89.80
2019-06-10T23:26:22.613Z,89.70
2019-06-10T23:28:52.769Z,90.70
2019-06-10T23:31:20.074Z,90.30
2019-06-10T23:33:47.914Z,90.30
2019-06-10T23:36:15.709Z,90.00
2019-06-10T23:38:43.387Z,89.00
2019-06-10T23:41:13.006Z,88.00
2019-06-10T23:43:42.300Z,88.30
2019-06-10T23:46:12.132Z,89.10
2019-06-10T23:48:42.275Z,88.00
2019-06-10T23:51:11.981Z,87.30
2019-06-10T23:53:39.322Z,87.60
2019-06-10T23:56:07.393Z,89.50
2019-06-10T23:58:35.291Z,88.80
